createdAt,value
2023-02-28T00:01:45.332Z,4.30
2023-02-28T00:04:14.077Z,5.30
2023-02-28T00:06:43.113Z,5.03
2023-02-28T00:09:11.437Z,4.70
2023-02-28T00:11:41.237Z,5.88
2023-02-28T00:14:09.395Z,5.40
2023-02-28T00:16:37.507Z,4.80
2023-02-28T00:19:05.736Z,5.55
2023-02-28T00:21:33.962Z,4.70
2023-02-28T00:24:02.120Z,5.70
2023-02-28T00:26:30.379Z,5.05
2023-02-28T00:28:59.992Z,5.65
2023-02-28T00:31:28.378Z,5.43
2023-02-28T00:33:56.788Z,5.05
2023-02-28T00:36:25.132Z,5.55
2023-02-28T00:38:53.253Z,5.60
2023-02-28T00:41:21.650Z,5.40
2023-02-28T00:43:49.956Z,5.03
2023-02-28T00:46:19.754Z,5.45
2023-02-28T00:48:47.981Z,5.40
2023-02-28T00:51:16.509Z,5.78
2023-02-28T00:53:44.719Z,5.88
2023-02-28T00:56:12.904Z,5.93
2023-02-28T00:58:41.147Z,6.53
2023-02-28T01:01:09.964Z,6.15
2023-02-28T01:03:41.460Z,5.93
2023-02-28T01:06:09.861Z,5.85
2023-02-28T01:08:40.185Z,5.57
2023-02-28T01:11:14.121Z,5.75
2023-02-28T01:13:42.595Z,5.90
2023-02-28T01:16:11.379Z,6.53
2023-02-28T01:18:41.201Z,6.32
2023-02-28T01:21:13.324Z,6.00
2023-02-28T01:23:42.367Z,6.40
2023-02-28T01:26:14.466Z,6.30
2023-02-28T01:28:43.583Z,5.97
2023-02-28T01:31:12.469Z,5.90
2023-02-28T01:33:42.696Z,6.13
2023-02-28T01:36:14.085Z,6.40
2023-02-28T01:38:42.900Z,5.70
2023-02-28T01:41:15.993Z,6.10
2023-02-28T01:44:05.346Z,6.40
2023-02-28T01:46:35.605Z,6.85
2023-02-28T01:49:11.442Z,6.88
2023-02-28T01:51:46.691Z,6.30
2023-02-28T01:54:18.855Z,6.20
2023-02-28T01:56:56.890Z,6.85
2023-02-28T01:59:32.298Z,6.65
2023-02-28T02:02:00.969Z,6.72
2023-02-28T02:04:43.044Z,7.60
2023-02-28T02:07:12.297Z,7.43
2023-02-28T02:09:40.523Z,6.88
2023-02-28T02:12:22.349Z,7.03
2023-02-28T02:15:03.158Z,7.82
2023-02-28T02:17:36.498Z,6.97
2023-02-28T02:20:37.110Z,7.18
2023-02-28T02:23:28.796Z,77.25
2023-02-28T02:26:00.703Z,27.90
2023-02-28T02:29:04.534Z,7.90
2023-02-28T02:32:04.325Z,7.80
2023-02-28T02:34:44.568Z,6.93
2023-02-28T02:37:24.149Z,8.07
2023-02-28T02:39:56.789Z,8.23
2023-02-28T02:42:30.599Z,7.70
2023-02-28T02:45:03.268Z,7.80
2023-02-28T02:47:33.278Z,7.22
2023-02-28T02:50:06.925Z,7.00
2023-02-28T02:52:41.435Z,7.05
2023-02-28T02:55:13.422Z,7.75
2023-02-28T02:57:48.632Z,7.70
2023-02-28T03:00:19.757Z,7.70
2023-02-28T03:02:51.241Z,7.32
2023-02-28T03:05:25.979Z,7.43
2023-02-28T03:07:54.210Z,7.88
2023-02-28T03:10:38.005Z,7.05
2023-02-28T03:13:22.284Z,7.15
2023-02-28T03:16:08.355Z,6.90
2023-02-28T03:18:45.659Z,6.65
2023-02-28T03:21:24.306Z,7.35
2023-02-28T03:24:04.270Z,7.60
2023-02-28T03:26:35.324Z,6.30
2023-02-28T03:29:11.710Z,7.32
2023-02-28T03:31:43.150Z,6.95
2023-02-28T03:34:16.446Z,7.35
2023-02-28T03:36:49.910Z,6.70
2023-02-28T03:39:21.973Z,6.70
2023-02-28T03:41:54.355Z,7.13
2023-02-28T03:44:27.858Z,7.10
2023-02-28T03:47:01.958Z,7.10
2023-02-28T03:49:37.388Z,7.03
2023-02-28T03:52:09.827Z,6.72
2023-02-28T03:54:43.384Z,6.90
2023-02-28T03:57:17.915Z,7.18
2023-02-28T03:59:49.956Z,7.43
2023-02-28T04:02:19.610Z,7.32
2023-02-28T04:04:50.548Z,6.28
2023-02-28T04:07:20.399Z,7.25
2023-02-28T04:09:48.881Z,7.00
2023-02-28T04:12:17.083Z,7.32
2023-02-28T04:14:45.316Z,7.50
2023-02-28T04:17:13.523Z,7.25
2023-02-28T04:19:41.727Z,7.07
2023-02-28T04:22:11.118Z,7.00
2023-02-28T04:24:42.474Z,7.03
2023-02-28T04:27:11.865Z,7.50
2023-02-28T04:29:40.509Z,7.53
2023-02-28T04:32:08.853Z,6.65
2023-02-28T04:34:37.406Z,7.80
2023-02-28T04:37:13.354Z,8.15
2023-02-28T04:39:43.897Z,7.25
2023-02-28T04:42:12.308Z,6.93
2023-02-28T04:44:40.526Z,6.38
2023-02-28T04:47:08.659Z,7.35
2023-02-28T04:49:36.751Z,6.90
2023-02-28T04:52:04.874Z,7.20
2023-02-28T04:54:33.036Z,7.25
2023-02-28T04:57:02.754Z,8.13
2023-02-28T04:59:30.886Z,7.10
2023-02-28T05:01:59.069Z,6.20
2023-02-28T05:04:27.282Z,7.88
2023-02-28T05:06:56.431Z,7.18
2023-02-28T05:09:24.543Z,7.20
2023-02-28T05:11:52.578Z,7.22
2023-02-28T05:14:22.133Z,7.15
2023-02-28T05:16:50.247Z,6.80
2023-02-28T05:19:18.489Z,6.90
2023-02-28T05:21:53.217Z,6.65
2023-02-28T05:24:23.879Z,6.95
2023-02-28T05:26:53.955Z,7.80
2023-02-28T05:29:24.073Z,7.00
2023-02-28T05:31:52.425Z,7.65
2023-02-28T05:34:21.073Z,7.55
2023-02-28T05:36:49.099Z,7.40
2023-02-28T05:39:17.366Z,7.50
2023-02-28T05:41:46.130Z,7.85
2023-02-28T05:44:14.402Z,7.18
2023-02-28T05:46:43.984Z,7.30
2023-02-28T05:49:12.319Z,7.50
2023-02-28T05:51:41.090Z,7.40
2023-02-28T05:54:09.571Z,7.05
2023-02-28T05:56:40.129Z,7.60
2023-02-28T05:59:08.492Z,6.63
2023-02-28T06:01:38.814Z,7.22
2023-02-28T06:04:19.335Z,7.03
2023-02-28T06:06:51.792Z,6.90
2023-02-28T06:09:21.393Z,6.43
2023-02-28T06:11:49.470Z,6.85
2023-02-28T06:14:21.878Z,6.82
2023-02-28T06:16:50.296Z,7.75
2023-02-28T06:19:19.826Z,6.95
2023-02-28T06:21:51.855Z,7.72
2023-02-28T06:24:19.975Z,6.82
2023-02-28T06:26:48.248Z,6.72
2023-02-28T06:29:18.098Z,7.35
2023-02-28T06:31:47.047Z,6.40
2023-02-28T06:34:16.106Z,6.78
2023-02-28T06:36:45.710Z,7.53
2023-02-28T06:39:13.981Z,7.03
2023-02-28T06:41:54.242Z,6.68
2023-02-28T06:44:24.925Z,7.25
2023-02-28T06:46:53.180Z,6.90
2023-02-28T06:49:21.489Z,7.05
2023-02-28T06:51:51.072Z,7.68
2023-02-28T06:54:19.352Z,6.45
2023-02-28T06:56:48.070Z,6.78
2023-02-28T06:59:16.134Z,6.07
2023-02-28T07:01:44.530Z,6.95
2023-02-28T07:04:14.181Z,7.13
2023-02-28T07:06:42.546Z,6.57
2023-02-28T07:09:12.442Z,6.80
2023-02-28T07:11:40.674Z,6.63
2023-02-28T07:14:09.305Z,7.10
2023-02-28T07:16:38.220Z,7.25
2023-02-28T07:19:06.389Z,6.38
2023-02-28T07:21:34.483Z,7.05
2023-02-28T07:24:02.737Z,6.20
2023-02-28T07:26:35.210Z,7.55
2023-02-28T07:29:03.884Z,6.65
2023-02-28T07:31:32.584Z,6.65
2023-02-28T07:34:01.079Z,8.65
2023-02-28T07:36:29.408Z,17.38
2023-02-28T07:38:57.696Z,7.10
2023-02-28T07:41:28.886Z,6.53
2023-02-28T07:44:00.727Z,8.80
2023-02-28T07:46:30.924Z,7.00
2023-02-28T07:49:00.561Z,7.57
2023-02-28T07:51:29.237Z,7.97
2023-02-28T07:53:57.586Z,11.50
2023-02-28T07:56:26.111Z,7.38
2023-02-28T07:58:54.398Z,7.70
2023-02-28T08:01:24.546Z,6.43
2023-02-28T08:03:52.822Z,6.28
2023-02-28T08:06:22.679Z,11.57
2023-02-28T08:08:51.638Z,7.93
2023-02-28T08:11:20.358Z,13.45
2023-02-28T08:13:49.161Z,10.48
2023-02-28T08:16:22.366Z,9.88
2023-02-28T08:18:52.397Z,5.50
2023-02-28T08:21:21.109Z,7.28
2023-02-28T08:23:50.110Z,7.00
2023-02-28T08:26:19.127Z,24.90
2023-02-28T08:28:48.030Z,15.18
2023-02-28T08:31:18.831Z,7.55
2023-02-28T08:33:49.714Z,6.70
2023-02-28T08:36:19.591Z,6.13
2023-02-28T08:38:47.991Z,5.97
2023-02-28T08:41:16.203Z,5.90
2023-02-28T08:43:44.623Z,5.68
2023-02-28T08:46:15.181Z,6.10
2023-02-28T08:48:44.865Z,5.88
2023-02-28T08:51:14.928Z,5.63
2023-02-28T08:53:44.827Z,5.80
2023-02-28T08:56:15.140Z,5.97
2023-02-28T08:58:43.441Z,5.97
2023-02-28T09:01:13.171Z,5.50
2023-02-28T09:03:42.470Z,6.03
2023-02-28T09:06:12.095Z,5.80
2023-02-28T09:08:40.913Z,6.05
2023-02-28T09:11:11.416Z,5.97
2023-02-28T09:13:40.437Z,6.30
2023-02-28T09:16:11.473Z,6.28
2023-02-28T09:18:40.316Z,6.13
2023-02-28T09:21:09.502Z,6.25
2023-02-28T09:23:39.039Z,6.47
2023-02-28T09:26:07.693Z,6.10
2023-02-28T09:28:37.080Z,6.18
2023-02-28T09:31:05.932Z,6.70
2023-02-28T09:33:35.267Z,8.98
2023-02-28T09:36:05.118Z,6.35
2023-02-28T09:38:33.269Z,6.10
2023-02-28T09:41:04.814Z,6.05
2023-02-28T09:43:39.826Z,7.20
2023-02-28T09:46:14.674Z,6.60
2023-02-28T09:48:48.200Z,6.18
2023-02-28T09:51:31.887Z,5.75
2023-02-28T09:54:02.038Z,6.53
2023-02-28T09:56:41.370Z,7.45
2023-02-28T09:59:20.191Z,6.40
2023-02-28T10:02:00.239Z,7.80
2023-02-28T10:04:41.008Z,7.60
2023-02-28T10:07:20.963Z,7.18
2023-02-28T10:09:54.457Z,6.90
2023-02-28T10:12:23.226Z,8.85
2023-02-28T10:14:56.070Z,6.95
2023-02-28T10:17:27.514Z,6.70
2023-02-28T10:20:08.645Z,7.10
2023-02-28T10:22:43.336Z,8.65
2023-02-28T10:25:20.373Z,6.47
2023-02-28T10:27:48.469Z,6.50
2023-02-28T10:30:18.340Z,6.35
2023-02-28T10:32:51.858Z,6.85
2023-02-28T10:35:22.470Z,7.00
2023-02-28T10:37:52.278Z,6.30
2023-02-28T10:40:34.406Z,7.72
2023-02-28T10:43:05.047Z,8.10
2023-02-28T10:45:38.105Z,6.10
2023-02-28T10:48:08.477Z,7.07
2023-02-28T10:50:44.131Z,7.53
2023-02-28T10:53:26.780Z,7.60
2023-02-28T10:56:03.196Z,6.85
2023-02-28T10:58:33.827Z,8.35
2023-02-28T11:01:03.184Z,8.15
2023-02-28T11:03:34.210Z,8.40
2023-02-28T11:06:09.071Z,7.38
2023-02-28T11:08:47.170Z,7.97
2023-02-28T11:11:15.727Z,8.07
2023-02-28T11:13:44.029Z,8.87
2023-02-28T11:16:15.428Z,8.77
2023-02-28T11:18:48.866Z,8.95
2023-02-28T11:21:26.855Z,8.60
2023-02-28T11:24:01.524Z,8.57
2023-02-28T11:26:45.845Z,7.90
2023-02-28T11:29:21.170Z,9.60
2023-02-28T11:32:16.002Z,8.75
2023-02-28T11:34:45.783Z,8.00
2023-02-28T11:37:16.616Z,9.00
2023-02-28T11:39:45.399Z,9.60
2023-02-28T11:42:33.991Z,8.90
2023-02-28T11:45:18.941Z,8.90
2023-02-28T11:47:54.495Z,9.47
2023-02-28T11:50:33.486Z,9.73
2023-02-28T11:53:07.130Z,9.30
2023-02-28T11:55:38.582Z,9.47
2023-02-28T11:58:32.434Z,9.10
2023-02-28T12:01:11.069Z,9.10
2023-02-28T12:03:48.986Z,9.70
2023-02-28T12:06:24.135Z,9.80
2023-02-28T12:09:03.051Z,9.77
2023-02-28T12:11:41.781Z,10.00
2023-02-28T12:14:58.362Z,9.77
2023-02-28T12:17:45.472Z,10.43
2023-02-28T12:20:27.631Z,9.67
2023-02-28T12:23:11.954Z,9.50
2023-02-28T12:25:57.899Z,12.83
2023-02-28T12:28:30.161Z,11.67
2023-02-28T12:31:03.360Z,30.43
2023-02-28T12:33:36.669Z,19.50
2023-02-28T12:36:12.885Z,21.93
2023-02-28T12:38:46.518Z,32.40
2023-02-28T12:41:17.460Z,34.73
2023-02-28T12:43:50.731Z,42.63
2023-02-28T12:46:23.608Z,17.40
2023-02-28T12:48:57.677Z,37.63
2023-02-28T12:51:29.303Z,33.43
2023-02-28T12:54:07.268Z,20.80
2023-02-28T12:56:45.298Z,16.87
2023-02-28T12:59:24.104Z,17.50
2023-02-28T13:02:27.910Z,15.20
2023-02-28T13:05:27.494Z,10.63
2023-02-28T13:08:14.079Z,10.80
2023-02-28T13:10:45.269Z,11.03
2023-02-28T13:13:19.220Z,10.60
2023-02-28T13:16:01.025Z,10.10
2023-02-28T13:18:40.603Z,10.20
2023-02-28T13:21:10.523Z,10.90
2023-02-28T13:23:57.977Z,11.23
2023-02-28T13:27:04.758Z,10.30
2023-02-28T13:29:36.216Z,11.07
2023-02-28T13:32:33.962Z,11.13
2023-02-28T13:35:38.952Z,11.40
2023-02-28T13:38:40.151Z,9.90
2023-02-28T13:41:46.459Z,11.10
2023-02-28T13:44:16.880Z,10.40
2023-02-28T13:47:29.919Z,10.80
2023-02-28T13:50:23.663Z,10.10
2023-02-28T13:53:03.472Z,10.10
2023-02-28T13:55:37.455Z,10.73
2023-02-28T13:58:36.503Z,11.30
2023-02-28T14:01:33.653Z,11.00
2023-02-28T14:04:26.150Z,13.23
2023-02-28T14:06:56.142Z,12.97
2023-02-28T14:09:28.092Z,12.87
2023-02-28T14:11:56.764Z,12.40
2023-02-28T14:14:58.966Z,12.03
2023-02-28T14:17:28.049Z,12.03
2023-02-28T14:19:59.672Z,11.87
2023-02-28T14:22:57.008Z,12.10
2023-02-28T14:25:35.928Z,12.13
2023-02-28T14:28:21.210Z,10.73
2023-02-28T14:30:59.807Z,12.33
2023-02-28T14:33:38.707Z,12.90
2023-02-28T14:36:16.561Z,17.97
2023-02-28T14:38:49.252Z,14.27
2023-02-28T14:41:23.133Z,12.13
2023-02-28T14:43:54.122Z,11.47
2023-02-28T14:46:24.505Z,12.70
2023-02-28T14:48:52.985Z,11.80
2023-02-28T14:51:24.552Z,13.00
2023-02-28T14:53:58.225Z,12.00
2023-02-28T14:56:30.918Z,12.60
2023-02-28T14:58:59.576Z,12.40
2023-02-28T15:01:28.280Z,13.90
2023-02-28T15:04:02.306Z,12.83
2023-02-28T15:06:32.456Z,11.10
2023-02-28T19:08:01.633Z,11.65
2023-02-28T19:10:30.046Z,13.13
2023-02-28T19:12:58.104Z,11.77
2023-02-28T19:15:26.122Z,13.02
2023-02-28T19:17:54.208Z,12.95
2023-02-28T19:20:22.305Z,13.70
2023-02-28T19:22:51.364Z,14.15
2023-02-28T19:25:20.788Z,13.15
2023-02-28T19:27:48.861Z,13.65
2023-02-28T19:30:17.423Z,12.55
2023-02-28T19:32:45.534Z,12.85
2023-02-28T19:35:13.611Z,13.07
2023-02-28T19:37:43.367Z,13.52
2023-02-28T19:40:13.737Z,12.77
2023-02-28T19:42:43.097Z,12.90
2023-02-28T19:45:14.699Z,13.40
2023-02-28T19:47:43.273Z,13.07
2023-02-28T19:50:12.739Z,14.40
2023-02-28T19:55:11.114Z,13.70
2023-02-28T19:57:39.166Z,12.25
2023-02-28T20:00:10.553Z,12.50
2023-02-28T20:02:42.110Z,13.50
2023-02-28T20:05:10.926Z,13.68
2023-02-28T20:07:39.107Z,14.10
2023-02-28T20:10:07.932Z,14.02
2023-02-28T20:12:36.011Z,13.30
2023-02-28T20:15:04.316Z,13.85
2023-02-28T20:17:33.942Z,13.65
2023-02-28T20:20:01.981Z,13.15
2023-02-28T20:22:30.086Z,13.77
2023-02-28T20:24:58.272Z,13.60
2023-02-28T20:27:26.342Z,13.75
2023-02-28T20:29:54.776Z,13.38
2023-02-28T20:32:22.794Z,13.25
2023-02-28T20:34:53.268Z,12.90
2023-02-28T20:37:21.300Z,13.18
2023-02-28T20:39:49.660Z,14.43
2023-02-28T20:42:17.644Z,15.15
2023-02-28T20:44:45.704Z,14.63
2023-02-28T20:47:13.861Z,13.50
2023-02-28T20:49:41.857Z,12.77
2023-02-28T20:52:11.427Z,13.55
2023-02-28T20:54:39.519Z,13.93
2023-02-28T20:57:07.636Z,15.30
2023-02-28T20:59:35.788Z,14.40
2023-02-28T21:02:03.795Z,13.23
2023-02-28T21:04:32.135Z,12.57
2023-02-28T21:07:00.252Z,13.45
2023-02-28T21:09:29.888Z,14.05
2023-02-28T21:11:58.075Z,14.23
2023-02-28T21:14:27.496Z,12.82
2023-02-28T21:16:56.436Z,13.50
2023-02-28T21:19:25.347Z,13.38
2023-02-28T21:21:55.393Z,12.48
2023-02-28T21:24:23.801Z,13.82
2023-02-28T21:26:54.017Z,13.93
2023-02-28T21:29:22.147Z,13.18
2023-02-28T21:31:51.757Z,13.18
2023-02-28T21:34:20.227Z,12.88
2023-02-28T21:36:48.449Z,11.95
2023-02-28T21:39:18.959Z,13.10
2023-02-28T21:41:47.294Z,12.32
2023-02-28T21:44:19.501Z,12.65
2023-02-28T21:46:49.062Z,12.35
2023-02-28T21:49:17.657Z,13.32
2023-02-28T21:51:45.823Z,12.70
2023-02-28T21:54:14.431Z,12.73
2023-02-28T21:56:42.455Z,14.05
2023-02-28T21:59:11.884Z,13.68
2023-02-28T22:01:44.082Z,13.00
2023-02-28T22:04:20.932Z,12.25
2023-02-28T22:06:50.912Z,12.95
2023-02-28T22:09:19.231Z,12.68
2023-02-28T22:11:48.112Z,13.57
2023-02-28T22:14:16.338Z,12.68
2023-02-28T22:16:55.176Z,12.30
2023-02-28T22:19:24.645Z,13.82
2023-02-28T22:21:54.131Z,13.32
2023-02-28T22:24:24.305Z,14.70
2023-02-28T22:26:53.045Z,13.35
2023-02-28T22:29:21.179Z,13.18
2023-02-28T22:31:50.700Z,13.82
2023-02-28T22:34:18.903Z,13.15
2023-02-28T22:36:46.919Z,13.45
2023-02-28T22:39:15.008Z,14.00
2023-02-28T22:41:43.030Z,13.93
2023-02-28T22:44:12.609Z,13.20
2023-02-28T22:46:40.794Z,15.48
2023-02-28T22:49:10.358Z,13.43
2023-02-28T22:51:38.423Z,13.02
2023-02-28T22:54:06.706Z,13.23
2023-02-28T22:56:34.886Z,14.55
2023-02-28T22:59:03.750Z,14.05
2023-02-28T23:01:34.447Z,13.25
2023-02-28T23:04:03.310Z,14.00
2023-02-28T23:06:35.152Z,14.57
2023-02-28T23:09:05.899Z,14.63
2023-02-28T23:11:37.378Z,13.60
2023-02-28T23:14:06.278Z,14.45
2023-02-28T23:16:37.881Z,14.25
2023-02-28T23:19:07.901Z,13.80
2023-02-28T23:21:37.655Z,14.00
2023-02-28T23:24:10.683Z,13.85
2023-02-28T23:26:39.927Z,13.30
2023-02-28T23:29:08.190Z,16.02
2023-02-28T23:31:36.367Z,12.93
2023-02-28T23:34:04.650Z,13.63
2023-02-28T23:36:33.335Z,13.10
2023-02-28T23:39:02.924Z,13.30
2023-02-28T23:41:31.774Z,13.95
2023-02-28T23:44:00.037Z,13.90
2023-02-28T23:46:28.405Z,14.07
2023-02-28T23:48:56.790Z,14.00
2023-02-28T23:51:25.358Z,13.77
2023-02-28T23:53:54.060Z,13.43
2023-02-28T23:56:25.190Z,15.20
2023-02-28T23:58:53.371Z,14.10
